Time;durP1;ratioP1;P1;durP2;ratioP2;P2;SDS_P1;SDS_P2;PMS_P1;PMS_P2;Temp;Humidity;BMP_temperature;BMP_pressure;BME280_temperature;BME280_humidity;BME280_pressure;Samples;Min_cycle;Max_cycle;Signal;HPM_P1;HPM_P2
2023/10/09 00:01:46;;;;;;;3.88;1.95;;;13.90;99.90;;;;;;4949386;29;20046;-60
2023/10/09 00:04:13;;;;;;;3.95;1.65;;;14.00;99.90;;;;;;4949950;29;20043;-59
2023/10/09 00:06:42;;;;;;;6.13;1.60;;;13.90;99.90;;;;;;4934031;29;20097;-59
2023/10/09 00:11:56;;;;;;;7.68;2.25;;;13.90;99.90;;;;;;4950468;29;20113;-60
2023/10/09 00:14:24;;;;;;;7.90;2.20;;;13.90;99.90;;;;;;4950063;29;20491;-59
2023/10/09 00:17:02;;;;;;;8.35;2.42;;;13.90;99.90;;;;;;4950094;29;20039;-59
2023/10/09 00:19:33;;;;;;;;;;;13.90;99.90;;;;;;4950182;29;20039;-59
2023/10/09 00:22:11;;;;;;;4.45;2.05;;;13.90;99.90;;;;;;4948100;28;19918;-59
2023/10/09 00:24:44;;;;;;;6.70;2.83;;;13.90;99.90;;;;;;4921415;29;20075;-60
2023/10/09 00:27:19;;;;;;;6.90;2.90;;;13.80;99.90;;;;;;4931846;29;20047;-59
2023/10/09 00:29:45;;;;;;;8.10;3.08;;;13.80;99.90;;;;;;4914461;29;20557;-59
2023/10/09 00:32:27;;;;;;;5.30;2.80;;;13.80;99.90;;;;;;4946221;29;20051;-60
2023/10/09 00:34:59;;;;;;;7.63;3.03;;;13.80;99.90;;;;;;4929807;29;20047;-60
2023/10/09 00:37:26;;;;;;;8.00;2.92;;;13.70;99.90;;;;;;4946412;29;20079;-60
2023/10/09 00:39:56;;;;;;;7.07;2.80;;;13.70;99.90;;;;;;4930607;29;20512;-59
2023/10/09 00:42:30;;;;;;;10.60;3.53;;;13.70;99.90;;;;;;4945621;29;20135;-59
2023/10/09 00:44:56;;;;;;;7.22;2.95;;;13.70;99.90;;;;;;4930415;29;20121;-60
2023/10/09 00:47:26;;;;;;;7.97;3.05;;;13.70;99.90;;;;;;4940962;28;20133;-60
2023/10/09 00:50:00;;;;;;;5.82;2.60;;;13.70;99.90;;;;;;4948846;29;20055;-60
2023/10/09 00:52:33;;;;;;;8.32;3.10;;;13.70;99.90;;;;;;4950559;28;20047;-59
2023/10/09 00:55:13;;;;;;;9.88;2.75;;;13.70;99.90;;;;;;4930329;29;20057;-59
2023/10/09 00:57:42;;;;;;;9.95;3.95;;;13.60;99.90;;;;;;4914096;29;20054;-59
2023/10/09 01:00:26;;;;;;;9.30;3.40;;;13.60;99.90;;;;;;4930909;29;20385;-59
2023/10/09 01:02:58;;;;;;;11.05;3.78;;;13.60;99.90;;;;;;4929425;29;20055;-60
2023/10/09 01:05:28;;;;;;;8.52;3.67;;;13.60;99.90;;;;;;4930168;29;20745;-59
2023/10/09 01:07:58;;;;;;;9.20;3.50;;;13.70;99.90;;;;;;4929843;29;20053;-59
2023/10/09 01:10:26;;;;;;;;;;;13.60;99.90;;;;;;4929615;29;20079;-60
2023/10/09 01:12:55;;;;;;;10.10;4.25;;;13.70;99.90;;;;;;4928941;29;19933;-59
2023/10/09 01:15:43;;;;;;;9.60;4.10;;;13.70;99.90;;;;;;4930222;29;20492;-59
2023/10/09 01:18:10;;;;;;;10.75;4.05;;;13.60;99.90;;;;;;4913389;29;20480;-60
2023/10/09 01:20:41;;;;;;;13.43;4.10;;;13.70;99.90;;;;;;4928546;29;20044;-60
2023/10/09 01:23:11;;;;;;;10.77;4.70;;;13.70;99.90;;;;;;4939273;28;20098;-59
2023/10/09 01:25:44;;;;;;;;;;;13.70;99.90;;;;;;4936818;28;20110;-59
2023/10/09 01:28:10;;;;;;;11.57;3.55;;;13.70;99.90;;;;;;4937750;29;19925;-59
2023/10/09 01:30:41;;;;;;;12.88;5.13;;;13.70;99.90;;;;;;4933686;29;20048;-59
2023/10/09 01:33:24;;;;;;;11.45;4.97;;;13.80;99.90;;;;;;4948784;28;20040;-59
2023/10/09 01:35:54;;;;;;;13.93;4.32;;;13.80;99.90;;;;;;4949147;29;20047;-59
2023/10/09 01:38:30;;;;;;;20.77;5.57;;;13.80;99.90;;;;;;4932583;29;20550;-60
2023/10/09 01:41:03;;;;;;;14.82;5.25;;;13.80;99.90;;;;;;4948478;29;20503;-60
2023/10/09 01:43:29;;;;;;;12.45;5.88;;;13.90;99.90;;;;;;4948260;29;20055;-60
2023/10/09 01:45:55;;;;;;;14.55;5.50;;;13.90;99.90;;;;;;4931943;29;20519;-60
2023/10/09 01:48:24;;;;;;;18.92;6.22;;;13.90;99.90;;;;;;4948924;28;20058;-59
2023/10/09 01:50:50;;;;;;;15.82;5.90;;;14.00;99.90;;;;;;4949847;28;20121;-60
2023/10/09 01:53:22;;;;;;;15.98;6.32;;;14.00;99.90;;;;;;4942338;28;20067;-60
2023/10/09 01:55:49;;;;;;;17.77;5.63;;;14.00;99.90;;;;;;4929415;29;20036;-59
2023/10/09 02:00:55;;;;;;;16.02;7.03;;;14.00;99.90;;;;;;4929002;29;20065;-59
2023/10/09 02:03:25;;;;;;;12.88;5.75;;;14.00;99.90;;;;;;4929203;29;20059;-60
2023/10/09 02:05:53;;;;;;;19.05;5.97;;;14.00;99.90;;;;;;4929015;29;20101;-60
2023/10/09 02:08:35;;;;;;;19.60;7.25;;;14.00;99.90;;;;;;4929263;29;20114;-59
2023/10/09 02:11:02;;;;;;;14.65;5.90;;;14.10;99.90;;;;;;4929176;29;20058;-58
2023/10/09 02:13:34;;;;;;;17.40;6.38;;;14.10;99.90;;;;;;4953444;28;20050;-58
2023/10/09 02:16:15;;;;;;;17.63;7.72;;;14.10;99.90;;;;;;4966467;28;20505;-58
2023/10/09 02:18:59;;;;;;;17.75;6.30;;;14.10;99.90;;;;;;4968432;28;20612;-58
2023/10/09 02:21:33;;;;;;;13.00;4.75;;;14.10;99.90;;;;;;4966681;28;20043;-58
2023/10/09 02:24:05;;;;;;;18.58;5.70;;;14.20;99.90;;;;;;4943350;28;20517;-58
2023/10/09 02:31:40;;;;;;;20.10;6.97;;;14.10;99.90;;;;;;4928776;29;20048;-58
2023/10/09 02:34:08;;;;;;;16.90;6.82;;;14.20;99.90;;;;;;4928184;28;20070;-58
2023/10/09 02:36:48;;;;;;;17.85;7.13;;;14.20;99.90;;;;;;4928664;28;20054;-58
2023/10/09 02:39:23;;;;;;;22.15;7.00;;;14.20;99.90;;;;;;4934505;28;20050;-58
2023/10/09 02:42:01;;;;;;;20.30;8.48;;;14.20;99.90;;;;;;4947324;28;20047;-58
2023/10/09 02:44:32;;;;;;;19.65;7.15;;;14.20;99.90;;;;;;4947594;29;20063;-58
2023/10/09 02:46:58;;;;;;;16.45;8.05;;;14.30;99.90;;;;;;4948898;28;20043;-58
2023/10/09 02:49:27;;;;;;;15.10;7.93;;;14.30;99.90;;;;;;4913379;29;20492;-58
2023/10/09 02:51:53;;;;;;;17.83;7.63;;;14.30;99.90;;;;;;4928914;29;20048;-58
2023/10/09 02:54:34;;;;;;;16.33;8.23;;;14.40;99.90;;;;;;4928195;29;20044;-58
2023/10/09 02:59:33;;;;;;;21.88;8.00;;;14.40;99.90;;;;;;4928614;29;20052;-58
2023/10/09 03:02:00;;;;;;;21.00;7.57;;;14.50;99.90;;;;;;4927964;29;20134;-58
2023/10/09 03:04:29;;;;;;;21.15;8.15;;;14.50;99.90;;;;;;4929485;29;20039;-58
2023/10/09 03:06:59;;;;;;;22.13;8.25;;;14.50;99.90;;;;;;4928434;29;20058;-58
2023/10/09 03:09:28;;;;;;;;;;;14.50;99.90;;;;;;5014110;28;20082;-58
2023/10/09 03:12:01;;;;;;;16.17;6.80;;;14.50;99.90;;;;;;4967513;28;20468;-58
2023/10/09 03:14:42;;;;;;;19.25;7.53;;;14.60;99.90;;;;;;4966697;28;20573;-58
2023/10/09 03:17:11;;;;;;;21.17;6.93;;;14.60;99.90;;;;;;4965378;28;20055;-58
2023/10/09 03:19:37;;;;;;;17.58;6.72;;;14.60;99.90;;;;;;4965982;28;20043;-58
2023/10/09 03:22:11;;;;;;;21.77;7.85;;;14.60;99.90;;;;;;4945442;28;20047;-58
2023/10/09 03:24:41;;;;;;;17.92;7.15;;;14.60;99.90;;;;;;4937837;29;20578;-58
2023/10/09 03:27:11;;;;;;;21.52;7.90;;;14.60;99.90;;;;;;4930967;29;20050;-58
2023/10/09 03:29:37;;;;;;;19.92;7.30;;;14.70;99.90;;;;;;4931562;29;20387;-58
2023/10/09 03:32:03;;;;;;;14.63;6.70;;;14.70;99.90;;;;;;4931929;29;20044;-58
2023/10/09 03:34:30;;;;;;;17.92;6.60;;;14.70;99.90;;;;;;4931343;29;20040;-58
2023/10/09 03:37:39;;;;;;;17.38;6.32;;;14.80;99.90;;;;;;4931577;29;20102;-58
2023/10/09 03:39:47;;;;;;;16.23;6.55;;;14.80;99.90;;;;;;4938615;28;20511;-58
2023/10/09 03:42:19;;;;;;;19.88;6.60;;;14.80;99.90;;;;;;4949423;29;20096;-59
2023/10/09 03:44:52;;;;;;;15.32;6.63;;;14.90;99.90;;;;;;4948898;29;20059;-58
2023/10/09 03:47:22;;;;;;;15.35;6.72;;;14.90;99.90;;;;;;4949774;29;20039;-58
2023/10/09 03:49:53;;;;;;;21.08;7.40;;;15.00;99.90;;;;;;4949409;29;20051;-58
2023/10/09 03:52:19;;;;;;;22.83;6.55;;;15.00;99.90;;;;;;4964774;28;20047;-58
2023/10/09 03:54:49;;;;;;;18.23;6.00;;;15.10;99.90;;;;;;4916446;29;20598;-58
2023/10/09 03:57:24;;;;;;;13.32;6.85;;;15.10;99.90;;;;;;4931364;29;20051;-58
2023/10/09 03:59:51;;;;;;;14.55;5.82;;;15.20;99.90;;;;;;4930865;29;20134;-58
2023/10/09 04:02:17;;;;;;;14.65;6.80;;;15.20;99.90;;;;;;4929902;29;20044;-58
2023/10/09 04:04:47;;;;;;;14.25;6.07;;;15.30;99.90;;;;;;4919966;28;20053;-58
2023/10/09 04:07:16;;;;;;;17.63;6.45;;;15.30;99.90;;;;;;4969872;28;20089;-58
2023/10/09 04:09:44;;;;;;;17.25;5.57;;;15.40;99.90;;;;;;4969030;28;20050;-58
2023/10/09 04:14:54;;;;;;;16.83;6.28;;;15.40;99.90;;;;;;4968433;28;20050;-58
2023/10/09 04:17:33;;;;;;;12.55;5.60;;;15.40;99.90;;;;;;4956682;28;20055;-58
2023/10/09 04:22:50;;;;;;;12.88;5.43;;;15.50;99.90;;;;;;4943497;28;20062;-58
2023/10/09 04:25:26;;;;;;;11.93;5.75;;;15.50;99.90;;;;;;4941598;29;20471;-58
2023/10/09 04:28:08;;;;;;;13.65;4.93;;;15.50;99.90;;;;;;4948260;29;20043;-58
2023/10/09 04:30:40;;;;;;;10.73;5.20;;;15.50;99.90;;;;;;4950302;28;20036;-58
2023/10/09 04:36:16;;;;;;;10.93;4.82;;;15.50;99.90;;;;;;4948299;28;20086;-58
2023/10/09 04:38:37;;;;;;;13.30;4.65;;;15.50;99.90;;;;;;4948577;28;20062;-58
2023/10/09 04:41:05;;;;;;;10.85;3.97;;;15.60;99.90;;;;;;4947985;29;20043;-58
2023/10/09 04:43:33;;;;;;;10.68;4.03;;;15.60;99.90;;;;;;4947033;28;20083;-58
2023/10/09 04:46:12;;;;;;;9.45;4.18;;;15.60;99.90;;;;;;4948359;29;20035;-58
2023/10/09 04:48:38;;;;;;;8.77;3.85;;;15.60;99.90;;;;;;4948167;29;20549;-58
2023/10/09 04:51:34;;;;;;;7.72;3.88;;;15.70;99.90;;;;;;4948112;29;20047;-58
2023/10/09 04:54:12;;;;;;;8.15;3.00;;;15.70;99.90;;;;;;4920938;29;20046;-58
2023/10/09 04:56:53;;;;;;;9.35;3.50;;;15.70;99.90;;;;;;4929576;29;20075;-58
2023/10/09 04:59:19;;;;;;;8.77;3.30;;;15.70;99.90;;;;;;4930462;29;20032;-58
2023/10/09 05:01:57;;;;;;;6.97;3.17;;;15.80;99.90;;;;;;4946995;28;20053;-58
2023/10/09 05:07:22;;;;;;;6.65;3.75;;;15.80;99.90;;;;;;4967556;28;20053;-58
2023/10/09 05:09:55;;;;;;;7.43;3.10;;;15.80;99.90;;;;;;4966707;28;20039;-58
2023/10/09 05:12:26;;;;;;;6.13;3.35;;;15.80;99.90;;;;;;4963731;28;20060;-58
2023/10/09 05:15:28;;;;;;;10.55;3.13;;;15.80;99.90;;;;;;4947433;28;20048;-58
2023/10/09 05:17:52;;;;;;;5.78;2.83;;;15.80;99.90;;;;;;4945404;29;20051;-58
2023/10/09 05:22:58;;;;;;;6.57;3.38;;;15.80;99.90;;;;;;4941117;28;20055;-58
2023/10/09 05:28:32;;;;;;;7.10;2.50;;;15.80;99.90;;;;;;4928435;29;20062;-58
2023/10/09 05:31:08;;;;;;;6.75;2.85;;;15.90;99.90;;;;;;4929090;29;20479;-58
2023/10/09 05:33:36;;;;;;;7.25;2.63;;;15.90;99.90;;;;;;4930024;29;20087;-58
2023/10/09 05:36:31;;;;;;;6.35;2.80;;;15.90;99.90;;;;;;4929392;29;20055;-58
2023/10/09 05:39:16;;;;;;;5.53;2.45;;;15.90;99.90;;;;;;4928726;29;20039;-58
2023/10/09 05:41:59;;;;;;;10.82;2.63;;;15.90;99.90;;;;;;4928456;29;20055;-58
2023/10/09 06:14:12;;;;;;;3.95;2.35;;;15.90;99.90;;;;;;4928079;29;20064;-58
2023/10/09 06:16:43;;;;;;;9.43;2.22;;;15.90;99.90;;;;;;4929229;29;20047;-58
2023/10/09 06:19:26;;;;;;;6.10;2.28;;;15.90;99.90;;;;;;4928686;29;20514;-58
2023/10/09 06:24:25;;;;;;;6.47;2.03;;;16.00;99.90;;;;;;4941819;29;20060;-58
2023/10/09 06:27:12;;;;;;;4.32;2.10;;;16.00;99.90;;;;;;4945607;29;20089;-58
2023/10/09 06:35:16;;;;;;;6.43;2.00;;;16.00;99.90;;;;;;4947030;28;20106;-58
2023/10/09 06:45:58;;;;;;;11.25;2.78;;;16.10;99.90;;;;;;4947673;28;20047;-58
2023/10/09 06:51:15;;;;;;;8.27;2.45;;;16.10;99.90;;;;;;4945972;29;20039;-58
2023/10/09 06:59:04;;;;;;;6.35;2.25;;;16.20;99.90;;;;;;4952465;28;20065;-58
2023/10/09 07:04:45;;;;;;;5.45;1.92;;;16.20;99.90;;;;;;4946570;29;20047;-58
2023/10/09 07:07:14;;;;;;;9.32;2.35;;;16.20;99.90;;;;;;5017682;28;20045;-58
2023/10/09 07:10:28;;;;;;;12.85;2.75;;;16.20;99.90;;;;;;5048516;28;20151;-58
2023/10/09 07:12:32;;;;;;;9.23;2.50;;;16.20;99.90;;;;;;5015953;28;20057;-58
2023/10/09 07:16:23;;;;;;;4.13;1.75;;;16.30;99.90;;;;;;5002113;28;20051;-58
2023/10/09 07:17:52;;;;;;;3.60;2.10;;;16.30;99.90;;;;;;4934085;28;20101;-58
2023/10/09 07:20:36;;;;;;;4.40;2.28;;;16.30;99.90;;;;;;4916155;29;20043;-58
2023/10/09 07:23:17;;;;;;;5.57;2.58;;;16.30;99.90;;;;;;4940624;28;20140;-58
2023/10/09 07:25:56;;;;;;;5.65;3.00;;;16.40;99.90;;;;;;4933085;29;20780;-58
2023/10/09 07:28:29;;;;;;;8.00;2.40;;;16.40;99.90;;;;;;4928406;29;20043;-58
2023/10/09 07:30:58;;;;;;;5.13;1.92;;;16.40;99.90;;;;;;4930629;29;20078;-58
2023/10/09 07:33:33;;;;;;;4.90;2.25;;;16.40;99.90;;;;;;4947276;29;20058;-58
2023/10/09 07:36:07;;;;;;;6.88;2.58;;;16.50;99.90;;;;;;4948094;28;20057;-58
2023/10/09 07:38:36;;;;;;;9.02;2.75;;;16.50;99.90;;;;;;4948594;28;20132;-58
2023/10/09 07:43:39;;;;;;;4.05;1.95;;;16.60;99.90;;;;;;4946635;28;20197;-58
2023/10/09 07:46:30;;;;;;;7.13;2.67;;;16.60;99.90;;;;;;4947136;29;20717;-58
2023/10/09 07:49:14;;;;;;;7.53;2.05;;;16.60;99.90;;;;;;4947463;29;20134;-58
2023/10/09 07:51:43;;;;;;;7.32;2.90;;;16.70;99.90;;;;;;4947073;28;20078;-58
2023/10/09 07:54:14;;;;;;;7.63;2.45;;;16.70;99.90;;;;;;4947788;28;20515;-58
2023/10/09 07:56:46;;;;;;;6.75;2.10;;;16.70;99.90;;;;;;4947217;28;20042;-58
2023/10/09 07:59:18;;;;;;;6.65;2.83;;;16.70;99.90;;;;;;4946529;29;20487;-58
2023/10/09 08:01:59;;;;;;;6.95;1.98;;;16.70;99.90;;;;;;4925293;29;20632;-58
2023/10/09 08:07:25;;;;;;;5.07;2.63;;;16.70;99.90;;;;;;4929359;28;20044;-58
2023/10/09 08:12:57;;;;;;;5.00;2.28;;;16.80;99.90;;;;;;4930520;28;20054;-58
2023/10/09 08:15:34;;;;;;;8.68;2.58;;;16.80;99.90;;;;;;4932308;29;20377;-58
2023/10/09 08:18:09;;;;;;;8.00;2.50;;;16.80;99.90;;;;;;4945042;29;20094;-58
2023/10/09 08:23:33;;;;;;;7.35;2.38;;;16.80;99.90;;;;;;4945081;28;20065;-58
2023/10/09 08:26:14;;;;;;;9.73;2.83;;;16.80;99.90;;;;;;4949361;29;20047;-58
2023/10/09 08:28:45;;;;;;;7.57;3.60;;;16.80;99.90;;;;;;4945612;28;20040;-58
2023/10/09 08:31:45;;;;;;;4.47;1.92;;;16.80;99.90;;;;;;4936255;29;20067;-58
2023/10/09 08:34:24;;;;;;;6.55;2.00;;;16.80;99.90;;;;;;4950297;28;20050;-58
2023/10/09 08:36:52;;;;;;;4.10;2.05;;;16.80;99.90;;;;;;4950761;28;20047;-58
2023/10/09 08:39:30;;;;;;;5.57;1.92;;;16.80;99.90;;;;;;4950329;28;20043;-58
2023/10/09 08:42:01;;;;;;;4.93;2.42;;;16.80;99.90;;;;;;4948931;29;20100;-58
2023/10/09 08:44:29;;;;;;;6.68;2.25;;;16.70;99.90;;;;;;4949492;29;20186;-58
2023/10/09 08:46:57;;;;;;;5.25;2.28;;;16.80;99.90;;;;;;4949681;28;20130;-58
2023/10/09 08:49:23;;;;;;;5.60;2.22;;;16.80;99.90;;;;;;4950825;28;20042;-58
2023/10/09 08:51:52;;;;;;;4.57;2.15;;;16.80;99.90;;;;;;4948786;29;20047;-58
2023/10/09 08:54:19;;;;;;;7.03;2.63;;;16.90;99.90;;;;;;4950763;28;20054;-58
2023/10/09 08:56:51;;;;;;;6.47;2.50;;;16.90;99.90;;;;;;4950445;28;20043;-58
2023/10/09 08:59:18;;;;;;;8.32;3.15;;;16.90;99.90;;;;;;4948674;29;20118;-58
2023/10/09 09:01:49;;;;;;;6.85;2.67;;;16.90;99.90;;;;;;4933229;29;20122;-58
2023/10/09 09:04:35;;;;;;;11.40;3.00;;;17.00;99.90;;;;;;4949093;29;20050;-58
2023/10/09 09:07:02;;;;;;;5.75;2.00;;;17.00;99.90;;;;;;4948073;29;20051;-58
2023/10/09 09:09:30;;;;;;;9.15;2.42;;;17.00;99.90;;;;;;4948223;29;20040;-58
2023/10/09 09:11:56;;;;;;;3.30;1.67;;;17.00;99.90;;;;;;4948083;29;20047;-58
2023/10/09 09:14:38;;;;;;;4.18;2.08;;;17.10;99.90;;;;;;4947608;28;20112;-58
2023/10/09 09:17:06;;;;;;;6.70;2.35;;;17.10;99.90;;;;;;4949564;28;20035;-58
2023/10/09 09:19:33;;;;;;;5.00;3.10;;;17.10;99.90;;;;;;4949341;28;20181;-58
2023/10/09 09:21:59;;;;;;;5.70;2.00;;;17.20;99.90;;;;;;4945426;28;20050;-58
2023/10/09 09:27:12;;;;;;;9.93;2.80;;;17.30;99.90;;;;;;4930089;29;20134;-58
2023/10/09 09:29:38;;;;;;;4.45;2.15;;;17.30;99.90;;;;;;4930081;29;20043;-58
2023/10/09 09:32:18;;;;;;;6.88;2.30;;;17.30;99.90;;;;;;4942807;29;20035;-58
2023/10/09 09:34:56;;;;;;;6.40;1.95;;;17.30;99.90;;;;;;4947993;29;20043;-58
2023/10/09 09:43:04;;;;;;;4.05;1.80;;;17.30;99.90;;;;;;4947796;28;20051;-58
2023/10/09 09:45:35;;;;;;;8.98;2.15;;;17.40;99.90;;;;;;4948549;29;20062;-58
2023/10/09 09:48:15;;;;;;;5.72;2.55;;;17.40;99.90;;;;;;4948351;29;20039;-58
2023/10/09 09:50:44;;;;;;;4.25;2.00;;;17.40;99.90;;;;;;4949021;29;20051;-58
2023/10/09 09:53:16;;;;;;;9.43;2.03;;;17.50;99.90;;;;;;4927937;29;20047;-58
2023/10/09 09:55:51;;;;;;;5.75;1.83;;;17.60;99.90;;;;;;4931963;29;20043;-58
2023/10/09 09:58:20;;;;;;;4.55;1.65;;;17.60;99.90;;;;;;4948467;29;20043;-58
2023/10/09 10:00:52;;;;;;;9.70;2.30;;;17.70;99.90;;;;;;4948504;29;20096;-58
2023/10/09 10:03:36;;;;;;;9.27;2.17;;;17.70;99.90;;;;;;4949189;28;20043;-59
2023/10/09 10:06:09;;;;;;;7.85;2.50;;;17.80;99.90;;;;;;4948458;29;20121;-58
2023/10/09 10:08:39;;;;;;;7.50;2.63;;;17.80;99.90;;;;;;4948205;29;20112;-58
2023/10/09 10:11:06;;;;;;;8.45;2.22;;;17.80;99.90;;;;;;4947877;29;20104;-58
2023/10/09 10:13:40;;;;;;;5.10;1.80;;;17.80;99.90;;;;;;4949191;28;20047;-58
2023/10/09 10:16:19;;;;;;;7.38;1.92;;;17.90;99.90;;;;;;4947683;28;20088;-58
2023/10/09 10:18:59;;;;;;;6.22;2.10;;;17.90;99.90;;;;;;4948268;29;20047;-58
2023/10/09 10:24:11;;;;;;;3.15;1.95;;;18.00;99.90;;;;;;4941323;28;20059;-59
2023/10/09 10:26:36;;;;;;;6.40;2.10;;;18.00;99.90;;;;;;4930467;29;20051;-58
2023/10/09 10:29:32;;;;;;;4.57;1.80;;;18.10;99.90;;;;;;4929200;28;20094;-58
2023/10/09 10:32:06;;;;;;;5.80;2.40;;;18.10;99.90;;;;;;4939550;29;20131;-58
2023/10/09 10:34:58;;;;;;;7.20;2.50;;;18.10;99.90;;;;;;4947118;29;20039;-58
2023/10/09 10:37:44;;;;;;;8.50;1.85;;;18.10;99.90;;;;;;4946096;28;20101;-58
2023/10/09 10:40:37;;;;;;;5.40;1.80;;;18.10;99.90;;;;;;4938036;28;20525;-58
2023/10/09 10:43:30;;;;;;;12.52;2.78;;;18.10;99.90;;;;;;4935875;28;20070;-58
2023/10/09 10:46:04;;;;;;;4.72;2.45;;;18.00;99.90;;;;;;4942077;28;20047;-58
2023/10/09 10:48:39;;;;;;;5.50;2.05;;;18.00;99.90;;;;;;4936321;28;20093;-59
2023/10/09 10:51:06;;;;;;;14.30;2.88;;;18.10;99.90;;;;;;4934978;28;20035;-59
2023/10/09 10:53:47;;;;;;;8.57;2.95;;;18.20;99.90;;;;;;4933485;28;20053;-59
2023/10/09 11:01:50;;;;;;;5.43;2.60;;;18.50;99.90;;;;;;4949517;28;20059;-58
2023/10/09 11:07:32;;;;;;;;;;;18.50;99.90;;;;;;4933953;28;20061;-58
2023/10/09 11:28:49;;;;;;;4.63;1.83;;;20.40;99.90;;;;;;4936072;28;20190;-59
2023/10/09 11:31:16;;;;;;;5.10;2.10;;;20.30;99.90;;;;;;4935851;28;20044;-59
2023/10/09 11:33:46;;;;;;;3.47;1.42;;;20.10;99.90;;;;;;4935832;28;20044;-59
2023/10/09 11:36:12;;;;;;;3.60;1.58;;;19.70;99.90;;;;;;4936467;28;20047;-59
2023/10/09 11:38:38;;;;;;;3.30;1.58;;;19.60;99.90;;;;;;4942874;28;20035;-59
2023/10/09 11:41:19;;;;;;;2.00;1.20;;;19.40;99.90;;;;;;4933232;28;20047;-59
2023/10/09 11:43:53;;;;;;;2.30;1.20;;;19.30;99.90;;;;;;4935128;28;20059;-59
2023/10/09 11:52:35;;;;;;;3.85;1.60;;;19.20;99.90;;;;;;4945066;28;20055;-59
2023/10/09 11:54:50;;;;;;;5.53;1.35;;;19.00;99.90;;;;;;4937171;28;20047;-59
2023/10/09 11:57:17;;;;;;;6.30;1.10;;;19.00;99.90;;;;;;4938875;28;20101;-59
2023/10/09 11:59:43;;;;;;;3.80;1.17;;;18.90;99.90;;;;;;4938221;28;20082;-59
2023/10/09 12:02:12;;;;;;;5.60;1.20;;;18.80;99.90;;;;;;4938598;28;20381;-59
2023/10/09 12:04:42;;;;;;;3.05;0.90;;;18.70;99.90;;;;;;4938902;28;20059;-59
2023/10/09 12:07:10;;;;;;;4.78;1.40;;;18.70;99.90;;;;;;4938934;28;20128;-59
2023/10/09 12:09:39;;;;;;;6.32;1.10;;;18.60;99.90;;;;;;4946214;28;20128;-59
2023/10/09 12:12:08;;;;;;;4.78;1.52;;;18.70;99.90;;;;;;4941412;28;20476;-59
2023/10/09 12:14:37;;;;;;;3.15;1.10;;;18.80;99.90;;;;;;4945159;28;20047;-59
2023/10/09 12:17:07;;;;;;;2.70;1.02;;;18.90;99.90;;;;;;4953017;28;20032;-59
2023/10/09 12:19:38;;;;;;;2.00;1.20;;;19.00;99.90;;;;;;4937902;28;20047;-59
2023/10/09 12:22:06;;;;;;;6.60;1.38;;;19.00;99.90;;;;;;4937035;28;20170;-59
2023/10/09 12:24:33;;;;;;;4.97;1.10;;;19.00;99.90;;;;;;4938333;28;20035;-59
2023/10/09 12:27:00;;;;;;;2.40;0.82;;;18.90;99.90;;;;;;4937208;28;20042;-59
2023/10/09 12:29:30;;;;;;;5.38;1.17;;;18.90;99.90;;;;;;4936693;28;20031;-59
2023/10/09 12:31:59;;;;;;;2.35;1.13;;;18.80;99.90;;;;;;4937673;28;20044;-59
2023/10/09 12:34:29;;;;;;;3.47;1.33;;;18.80;99.90;;;;;;4938531;28;20048;-59
2023/10/09 12:37:00;;;;;;;2.28;0.90;;;18.80;99.90;;;;;;4952315;28;20051;-59
2023/10/09 12:39:33;;;;;;;1.85;0.82;;;18.80;99.90;;;;;;4938767;28;20023;-59
2023/10/09 12:42:06;;;;;;;8.25;1.00;;;18.80;99.90;;;;;;4945518;28;20044;-59
2023/10/09 12:44:42;;;;;;;2.95;0.90;;;18.80;99.90;;;;;;4935083;28;20545;-59
2023/10/09 12:47:12;;;;;;;2.72;1.15;;;18.80;99.90;;;;;;4937280;28;20603;-59
2023/10/09 12:49:40;;;;;;;4.28;1.08;;;18.80;99.90;;;;;;4938555;28;20114;-59
2023/10/09 12:52:15;;;;;;;4.10;0.60;;;18.80;99.90;;;;;;4936636;28;20752;-59
2023/10/09 12:54:42;;;;;;;4.20;0.77;;;18.80;99.90;;;;;;4937581;28;20082;-59
2023/10/09 12:57:13;;;;;;;3.42;0.90;;;18.80;99.90;;;;;;4935875;28;20078;-59
2023/10/09 12:59:48;;;;;;;2.03;0.80;;;18.80;99.90;;;;;;4938854;28;20084;-59
2023/10/09 13:02:29;;;;;;;2.63;1.00;;;18.90;99.90;;;;;;4953224;28;20070;-59
2023/10/09 13:04:56;;;;;;;3.47;0.77;;;18.90;99.90;;;;;;4952080;28;20048;-59
2023/10/09 13:07:22;;;;;;;1.75;0.80;;;19.00;99.90;;;;;;4938217;28;20086;-59
2023/10/09 13:12:32;;;;;;;3.88;0.80;;;19.10;99.90;;;;;;4935982;28;20123;-59
2023/10/09 13:14:58;;;;;;;2.42;0.82;;;18.90;99.90;;;;;;4936692;28;20122;-59
2023/10/09 13:17:27;;;;;;;3.60;1.45;;;18.80;99.90;;;;;;4937284;28;20048;-59
2023/10/09 13:19:54;;;;;;;4.03;1.00;;;18.70;99.90;;;;;;4936192;28;20397;-59
2023/10/09 13:22:22;;;;;;;3.85;1.48;;;18.60;99.90;;;;;;4936941;28;20039;-59
2023/10/09 13:24:49;;;;;;;5.30;1.20;;;18.50;99.90;;;;;;4936854;28;20071;-59
2023/10/09 13:27:21;;;;;;;3.67;1.23;;;18.50;99.90;;;;;;4952433;28;20570;-59
2023/10/09 13:29:48;;;;;;;5.00;1.33;;;18.40;99.90;;;;;;4936634;28;20488;-59
2023/10/09 13:32:15;;;;;;;4.20;0.93;;;18.40;99.90;;;;;;4936134;28;20050;-59
2023/10/09 13:34:46;;;;;;;1.95;0.73;;;18.30;99.90;;;;;;4936140;28;20043;-59
2023/10/09 13:37:13;;;;;;;2.25;0.98;;;18.30;99.90;;;;;;4936611;28;20109;-59
2023/10/09 13:39:40;;;;;;;5.82;0.93;;;18.30;99.90;;;;;;4935682;28;20043;-59
2023/10/09 13:42:10;;;;;;;3.80;1.15;;;18.20;99.90;;;;;;4937324;28;20531;-59
2023/10/09 13:44:37;;;;;;;;;;;18.20;99.90;;;;;;4936647;28;20051;-59
2023/10/09 13:47:18;;;;;;;9.63;2.50;;;18.30;99.90;;;;;;4935602;28;19993;-59
2023/10/09 13:49:53;;;;;;;5.00;2.58;;;18.30;99.90;;;;;;4952565;28;20043;-59
2023/10/09 13:52:19;;;;;;;10.30;3.80;;;18.40;99.90;;;;;;4920068;28;20042;-59
2023/10/09 13:54:49;;;;;;;5.72;2.90;;;18.30;99.90;;;;;;4935790;28;20035;-59
2023/10/09 13:57:15;;;;;;;7.03;3.45;;;18.30;99.90;;;;;;4935821;28;20110;-59
2023/10/09 13:59:51;;;;;;;7.35;2.97;;;18.30;99.90;;;;;;4937459;28;20046;-59
2023/10/09 14:02:18;;;;;;;5.28;2.42;;;18.30;99.90;;;;;;4937598;28;20447;-59
2023/10/09 14:04:46;;;;;;;4.68;1.85;;;18.20;99.90;;;;;;4937168;28;20036;-59
2023/10/09 14:07:16;;;;;;;4.40;1.83;;;18.20;99.90;;;;;;4935315;28;20035;-59
2023/10/09 14:09:55;;;;;;;2.78;1.33;;;18.10;99.90;;;;;;4937205;28;20415;-59
2023/10/09 14:12:24;;;;;;;2.28;0.85;;;18.10;99.90;;;;;;4943667;28;20047;-59
2023/10/09 14:14:53;;;;;;;2.55;1.35;;;18.10;99.90;;;;;;4934953;28;20039;-59
2023/10/09 14:17:25;;;;;;;4.13;1.65;;;18.10;99.90;;;;;;4935309;28;20047;-59
2023/10/09 14:22:52;;;;;;;2.83;1.30;;;18.20;99.90;;;;;;4954335;28;20051;-59
2023/10/09 14:25:20;;;;;;;6.75;2.85;;;18.20;99.90;;;;;;4936050;28;20059;-59
2023/10/09 14:27:48;;;;;;;6.22;2.90;;;18.10;99.90;;;;;;4936511;28;20567;-59
2023/10/09 14:30:22;;;;;;;5.47;2.05;;;18.10;99.90;;;;;;4950882;28;20119;-59
2023/10/09 14:32:55;;;;;;;8.02;2.80;;;18.00;99.90;;;;;;4935711;28;20480;-59
2023/10/09 14:35:26;;;;;;;2.53;1.30;;;18.00;99.90;;;;;;4934229;28;20092;-59
2023/10/09 14:37:53;;;;;;;3.42;1.65;;;18.00;99.90;;;;;;4935717;28;20534;-59
2023/10/09 14:40:29;;;;;;;8.55;3.95;;;17.90;99.90;;;;;;4919805;28;20071;-59
2023/10/09 14:42:58;;;;;;;4.05;2.10;;;17.90;99.90;;;;;;4935531;28;20066;-59
2023/10/09 14:45:27;;;;;;;5.30;1.90;;;17.90;99.90;;;;;;4935985;28;20083;-59
2023/10/09 14:47:54;;;;;;;4.97;1.13;;;17.90;99.90;;;;;;4936729;28;20770;-59
2023/10/09 14:50:24;;;;;;;3.47;1.02;;;17.90;99.90;;;;;;4935326;28;20087;-59
2023/10/09 14:52:53;;;;;;;7.65;1.98;;;17.80;99.90;;;;;;4941782;28;20039;-59
2023/10/09 14:55:28;;;;;;;2.35;1.05;;;17.80;99.90;;;;;;4935014;28;20047;-59
2023/10/09 14:57:55;;;;;;;3.17;1.08;;;17.80;99.90;;;;;;4934952;28;20085;-59
2023/10/09 15:00:23;;;;;;;4.05;1.02;;;17.80;99.90;;;;;;4936665;28;20031;-59
2023/10/09 15:02:52;;;;;;;4.15;1.13;;;17.80;99.90;;;;;;4934715;28;20036;-59
2023/10/09 15:05:18;;;;;;;2.30;1.10;;;17.70;99.90;;;;;;4936426;28;20477;-59
2023/10/09 15:07:45;;;;;;;1.77;0.73;;;17.70;99.90;;;;;;4951287;28;20047;-59
2023/10/09 15:10:15;;;;;;;2.10;0.82;;;17.60;99.90;;;;;;4934267;28;20128;-59
2023/10/09 15:12:42;;;;;;;2.15;0.95;;;17.50;99.90;;;;;;4936453;28;20043;-59
2023/10/09 15:15:16;;;;;;;3.90;0.95;;;17.50;99.90;;;;;;4920242;28;20044;-59
2023/10/09 15:17:47;;;;;;;4.40;1.23;;;17.50;99.90;;;;;;4934589;28;20413;-59
2023/10/09 15:20:14;;;;;;;2.65;1.10;;;17.40;99.90;;;;;;4933408;28;20062;-59
2023/10/09 15:22:44;;;;;;;1.42;0.55;;;17.40;99.90;;;;;;4934213;28;20043;-59
2023/10/09 15:25:17;;;;;;;4.78;1.27;;;17.30;99.90;;;;;;4937355;28;20047;-59
2023/10/09 15:27:45;;;;;;;1.52;0.77;;;17.30;99.90;;;;;;4936737;28;20100;-59
2023/10/09 15:30:14;;;;;;;5.40;0.93;;;17.40;99.90;;;;;;4935482;28;20124;-59
2023/10/09 15:32:41;;;;;;;3.20;0.80;;;17.40;99.90;;;;;;4933704;28;20052;-59
2023/10/09 15:35:09;;;;;;;1.73;0.90;;;17.40;99.90;;;;;;4934361;28;20055;-59
2023/10/09 15:37:36;;;;;;;3.20;0.93;;;17.40;99.90;;;;;;4934985;28;21844;-59
2023/10/09 15:40:13;;;;;;;4.72;0.95;;;17.30;99.90;;;;;;4934090;28;20050;-59